sensor_id;sensor_type;location;lat;lon;timestamp;temperature;humidity
31975;DHT22;18500;43.618;1.474;2023-12-22T00:01:28;11.10;99.90
31975;DHT22;18500;43.618;1.474;2023-12-22T00:03:54;11.10;99.90
31975;DHT22;18500;43.618;1.474;2023-12-22T00:06:20;11.00;99.90
31975;DHT22;18500;43.618;1.474;2023-12-22T00:08:45;11.10;99.90
31975;DHT22;18500;43.618;1.474;2023-12-22T00:11:11;11.10;99.90
31975;DHT22;18500;43.618;1.474;2023-12-22T00:13:37;11.10;99.90
31975;DHT22;18500;43.618;1.474;2023-12-22T00:16:02;11.00;99.90
31975;DHT22;18500;43.618;1.474;2023-12-22T00:18:28;11.00;99.90
31975;DHT22;18500;43.618;1.474;2023-12-22T00:20:54;11.00;99.90
31975;DHT22;18500;43.618;1.474;2023-12-22T00:23:20;11.00;99.90
31975;DHT22;18500;43.618;1.474;2023-12-22T00:25:45;11.00;99.90
31975;DHT22;18500;43.618;1.474;2023-12-22T00:28:11;11.00;99.90
31975;DHT22;18500;43.618;1.474;2023-12-22T00:30:37;10.90;99.90
31975;DHT22;18500;43.618;1.474;2023-12-22T00:33:02;10.90;99.90
31975;DHT22;18500;43.618;1.474;2023-12-22T00:35:28;11.00;99.90
31975;DHT22;18500;43.618;1.474;2023-12-22T00:37:54;10.90;99.90
31975;DHT22;18500;43.618;1.474;2023-12-22T00:40:19;11.00;99.90
31975;DHT22;18500;43.618;1.474;2023-12-22T00:42:45;11.00;99.90
31975;DHT22;18500;43.618;1.474;2023-12-22T00:45:11;11.00;99.90
31975;DHT22;18500;43.618;1.474;2023-12-22T00:47:36;11.00;99.90
31975;DHT22;18500;43.618;1.474;2023-12-22T00:50:03;11.00;99.90
31975;DHT22;18500;43.618;1.474;2023-12-22T00:52:30;11.00;99.90
31975;DHT22;18500;43.618;1.474;2023-12-22T00:54:56;11.00;99.90
31975;DHT22;18500;43.618;1.474;2023-12-22T00:57:22;11.00;99.90
31975;DHT22;18500;43.618;1.474;2023-12-22T00:59:48;10.90;99.90
31975;DHT22;18500;43.618;1.474;2023-12-22T01:02:14;10.90;99.90
31975;DHT22;18500;43.618;1.474;2023-12-22T01:04:40;10.90;99.90
31975;DHT22;18500;43.618;1.474;2023-12-22T01:07:07;11.00;99.90
31975;DHT22;18500;43.618;1.474;2023-12-22T01:09:34;11.00;99.90
31975;DHT22;18500;43.618;1.474;2023-12-22T01:11:59;11.00;99.90
31975;DHT22;18500;43.618;1.474;2023-12-22T01:14:28;11.00;99.90
31975;DHT22;18500;43.618;1.474;2023-12-22T01:16:54;11.00;99.90
31975;DHT22;18500;43.618;1.474;2023-12-22T01:19:19;11.00;99.90
31975;DHT22;18500;43.618;1.474;2023-12-22T01:21:45;11.00;99.90
31975;DHT22;18500;43.618;1.474;2023-12-22T01:24:10;11.00;99.90
31975;DHT22;18500;43.618;1.474;2023-12-22T01:26:36;11.00;99.90
31975;DHT22;18500;43.618;1.474;2023-12-22T01:29:02;11.00;99.90
31975;DHT22;18500;43.618;1.474;2023-12-22T01:31:28;11.10;99.90
31975;DHT22;18500;43.618;1.474;2023-12-22T01:33:53;11.00;99.90
31975;DHT22;18500;43.618;1.474;2023-12-22T01:36:19;11.00;99.90
31975;DHT22;18500;43.618;1.474;2023-12-22T01:38:45;11.00;99.90
31975;DHT22;18500;43.618;1.474;2023-12-22T01:41:10;11.10;99.90
31975;DHT22;18500;43.618;1.474;2023-12-22T01:43:36;11.10;99.90
31975;DHT22;18500;43.618;1.474;2023-12-22T01:46:02;11.10;99.90
31975;DHT22;18500;43.618;1.474;2023-12-22T01:48:28;11.10;99.90
31975;DHT22;18500;43.618;1.474;2023-12-22T01:50:56;11.10;99.90
31975;DHT22;18500;43.618;1.474;2023-12-22T01:53:24;11.10;99.90
31975;DHT22;18500;43.618;1.474;2023-12-22T01:55:52;11.10;99.90
31975;DHT22;18500;43.618;1.474;2023-12-22T01:58:19;11.10;99.90
31975;DHT22;18500;43.618;1.474;2023-12-22T02:00:45;11.10;99.90
31975;DHT22;18500;43.618;1.474;2023-12-22T02:03:12;11.10;99.90
31975;DHT22;18500;43.618;1.474;2023-12-22T02:05:38;11.10;99.90
31975;DHT22;18500;43.618;1.474;2023-12-22T02:08:05;11.10;99.90
31975;DHT22;18500;43.618;1.474;2023-12-22T02:10:31;11.10;99.90
31975;DHT22;18500;43.618;1.474;2023-12-22T02:12:57;11.20;99.90
31975;DHT22;18500;43.618;1.474;2023-12-22T02:15:23;11.10;99.90
31975;DHT22;18500;43.618;1.474;2023-12-22T02:17:55;11.10;99.90
31975;DHT22;18500;43.618;1.474;2023-12-22T02:20:21;11.00;99.90
31975;DHT22;18500;43.618;1.474;2023-12-22T02:22:51;11.10;99.90
31975;DHT22;18500;43.618;1.474;2023-12-22T02:25:18;11.10;99.90
31975;DHT22;18500;43.618;1.474;2023-12-22T02:27:58;11.10;99.90
31975;DHT22;18500;43.618;1.474;2023-12-22T02:30:34;11.20;99.90
31975;DHT22;18500;43.618;1.474;2023-12-22T02:33:05;11.10;99.90
31975;DHT22;18500;43.618;1.474;2023-12-22T02:35:33;11.10;99.90
31975;DHT22;18500;43.618;1.474;2023-12-22T02:38:01;11.10;99.90
31975;DHT22;18500;43.618;1.474;2023-12-22T02:40:28;11.10;99.90
31975;DHT22;18500;43.618;1.474;2023-12-22T02:42:55;11.20;99.90
31975;DHT22;18500;43.618;1.474;2023-12-22T02:45:20;11.20;99.90
31975;DHT22;18500;43.618;1.474;2023-12-22T02:47:46;11.10;99.90
31975;DHT22;18500;43.618;1.474;2023-12-22T02:50:14;11.20;99.90
31975;DHT22;18500;43.618;1.474;2023-12-22T02:52:40;11.20;99.90
31975;DHT22;18500;43.618;1.474;2023-12-22T02:55:06;11.20;99.90
31975;DHT22;18500;43.618;1.474;2023-12-22T02:57:32;11.10;99.90
31975;DHT22;18500;43.618;1.474;2023-12-22T02:59:58;11.20;99.90
31975;DHT22;18500;43.618;1.474;2023-12-22T03:02:24;11.10;99.90
31975;DHT22;18500;43.618;1.474;2023-12-22T03:04:49;11.20;99.90
31975;DHT22;18500;43.618;1.474;2023-12-22T03:07:15;11.20;99.90
31975;DHT22;18500;43.618;1.474;2023-12-22T03:09:42;11.20;99.90
31975;DHT22;18500;43.618;1.474;2023-12-22T03:12:09;11.30;99.90
31975;DHT22;18500;43.618;1.474;2023-12-22T03:14:35;11.30;99.90
31975;DHT22;18500;43.618;1.474;2023-12-22T03:17:05;11.20;99.90
31975;DHT22;18500;43.618;1.474;2023-12-22T03:19:32;11.30;99.90
31975;DHT22;18500;43.618;1.474;2023-12-22T03:21:58;11.30;99.90
31975;DHT22;18500;43.618;1.474;2023-12-22T03:24:24;11.30;99.90
31975;DHT22;18500;43.618;1.474;2023-12-22T03:26:51;11.30;99.90
31975;DHT22;18500;43.618;1.474;2023-12-22T03:29:17;11.20;99.90
31975;DHT22;18500;43.618;1.474;2023-12-22T03:31:43;11.30;99.90
31975;DHT22;18500;43.618;1.474;2023-12-22T03:34:09;11.20;99.90
31975;DHT22;18500;43.618;1.474;2023-12-22T03:36:35;11.20;99.90
31975;DHT22;18500;43.618;1.474;2023-12-22T03:39:01;11.30;99.90
31975;DHT22;18500;43.618;1.474;2023-12-22T03:41:28;11.30;99.90
31975;DHT22;18500;43.618;1.474;2023-12-22T03:43:54;11.30;99.90
31975;DHT22;18500;43.618;1.474;2023-12-22T03:46:20;11.30;99.90
31975;DHT22;18500;43.618;1.474;2023-12-22T03:48:46;11.30;99.90
31975;DHT22;18500;43.618;1.474;2023-12-22T03:51:12;11.30;99.90
31975;DHT22;18500;43.618;1.474;2023-12-22T03:53:38;11.20;99.90
31975;DHT22;18500;43.618;1.474;2023-12-22T03:56:04;11.30;99.90
31975;DHT22;18500;43.618;1.474;2023-12-22T03:58:30;11.20;99.90
31975;DHT22;18500;43.618;1.474;2023-12-22T04:00:56;11.20;99.90
31975;DHT22;18500;43.618;1.474;2023-12-22T04:03:22;11.20;99.90
31975;DHT22;18500;43.618;1.474;2023-12-22T04:05:47;11.20;99.90
31975;DHT22;18500;43.618;1.474;2023-12-22T04:08:13;11.20;99.90
31975;DHT22;18500;43.618;1.474;2023-12-22T04:10:39;11.20;99.90
31975;DHT22;18500;43.618;1.474;2023-12-22T04:13:04;11.20;99.90
31975;DHT22;18500;43.618;1.474;2023-12-22T04:15:30;11.20;99.90
31975;DHT22;18500;43.618;1.474;2023-12-22T04:17:55;11.30;99.90
31975;DHT22;18500;43.618;1.474;2023-12-22T04:20:21;11.30;99.90
31975;DHT22;18500;43.618;1.474;2023-12-22T04:22:47;11.30;99.90
31975;DHT22;18500;43.618;1.474;2023-12-22T04:25:12;11.30;99.90
31975;DHT22;18500;43.618;1.474;2023-12-22T04:27:38;11.30;99.90
31975;DHT22;18500;43.618;1.474;2023-12-22T04:30:04;11.20;99.90
31975;DHT22;18500;43.618;1.474;2023-12-22T04:32:30;11.30;99.90
31975;DHT22;18500;43.618;1.474;2023-12-22T04:34:55;11.20;99.90
31975;DHT22;18500;43.618;1.474;2023-12-22T04:37:21;11.20;99.90
31975;DHT22;18500;43.618;1.474;2023-12-22T04:39:47;11.20;99.90
31975;DHT22;18500;43.618;1.474;2023-12-22T04:42:12;11.30;99.90
31975;DHT22;18500;43.618;1.474;2023-12-22T04:44:38;11.20;99.90
31975;DHT22;18500;43.618;1.474;2023-12-22T04:47:04;11.10;99.90
31975;DHT22;18500;43.618;1.474;2023-12-22T04:49:29;11.20;99.90
31975;DHT22;18500;43.618;1.474;2023-12-22T04:51:55;11.10;99.90
31975;DHT22;18500;43.618;1.474;2023-12-22T04:54:20;11.10;99.90
31975;DHT22;18500;43.618;1.474;2023-12-22T04:56:46;11.10;99.90
31975;DHT22;18500;43.618;1.474;2023-12-22T04:59:12;11.10;99.90
31975;DHT22;18500;43.618;1.474;2023-12-22T05:01:37;11.00;99.90
31975;DHT22;18500;43.618;1.474;2023-12-22T05:04:03;11.00;99.90
31975;DHT22;18500;43.618;1.474;2023-12-22T05:06:29;11.00;99.90
31975;DHT22;18500;43.618;1.474;2023-12-22T05:08:55;11.00;99.90
31975;DHT22;18500;43.618;1.474;2023-12-22T05:11:22;11.00;99.90
31975;DHT22;18500;43.618;1.474;2023-12-22T05:13:48;11.00;99.90
31975;DHT22;18500;43.618;1.474;2023-12-22T05:16:13;11.00;99.90
31975;DHT22;18500;43.618;1.474;2023-12-22T05:18:40;11.00;99.90
31975;DHT22;18500;43.618;1.474;2023-12-22T05:21:05;11.00;99.90
31975;DHT22;18500;43.618;1.474;2023-12-22T05:23:31;11.00;99.90
31975;DHT22;18500;43.618;1.474;2023-12-22T05:25:58;11.00;99.90
31975;DHT22;18500;43.618;1.474;2023-12-22T05:28:23;11.00;99.90
31975;DHT22;18500;43.618;1.474;2023-12-22T05:30:49;11.00;99.90
31975;DHT22;18500;43.618;1.474;2023-12-22T05:33:15;11.00;99.90
31975;DHT22;18500;43.618;1.474;2023-12-22T05:35:40;11.10;99.90
31975;DHT22;18500;43.618;1.474;2023-12-22T05:38:06;11.10;99.90
31975;DHT22;18500;43.618;1.474;2023-12-22T05:40:32;11.00;99.90
31975;DHT22;18500;43.618;1.474;2023-12-22T05:42:57;11.00;99.90
31975;DHT22;18500;43.618;1.474;2023-12-22T05:45:24;11.00;99.90
31975;DHT22;18500;43.618;1.474;2023-12-22T05:47:50;11.00;99.90
31975;DHT22;18500;43.618;1.474;2023-12-22T05:50:16;11.10;99.90
31975;DHT22;18500;43.618;1.474;2023-12-22T05:52:42;11.10;99.90
31975;DHT22;18500;43.618;1.474;2023-12-22T05:55:10;11.10;99.90
31975;DHT22;18500;43.618;1.474;2023-12-22T05:57:36;11.10;99.90
31975;DHT22;18500;43.618;1.474;2023-12-22T06:00:02;11.10;20.40
31975;DHT22;18500;43.618;1.474;2023-12-22T06:02:30;11.00;4.80
31975;DHT22;18500;43.618;1.474;2023-12-22T06:04:55;11.10;1.00
31975;DHT22;18500;43.618;1.474;2023-12-22T06:07:21;11.10;5.20
31975;DHT22;18500;43.618;1.474;2023-12-22T06:09:47;11.10;1.00
31975;DHT22;18500;43.618;1.474;2023-12-22T06:12:12;11.10;1.00
31975;DHT22;18500;43.618;1.474;2023-12-22T06:14:38;11.10;1.00
31975;DHT22;18500;43.618;1.474;2023-12-22T06:17:04;11.10;1.00
31975;DHT22;18500;43.618;1.474;2023-12-22T06:19:29;11.10;1.00
31975;DHT22;18500;43.618;1.474;2023-12-22T06:21:56;11.10;1.00
31975;DHT22;18500;43.618;1.474;2023-12-22T06:24:23;11.10;1.00
31975;DHT22;18500;43.618;1.474;2023-12-22T06:26:49;11.10;1.00
31975;DHT22;18500;43.618;1.474;2023-12-22T06:29:14;11.10;1.00
31975;DHT22;18500;43.618;1.474;2023-12-22T06:31:41;11.10;1.00
31975;DHT22;18500;43.618;1.474;2023-12-22T06:34:06;11.10;1.00
31975;DHT22;18500;43.618;1.474;2023-12-22T06:36:32;11.20;53.70
31975;DHT22;18500;43.618;1.474;2023-12-22T06:38:57;11.10;89.60
31975;DHT22;18500;43.618;1.474;2023-12-22T06:41:25;11.10;99.90
31975;DHT22;18500;43.618;1.474;2023-12-22T06:43:50;11.20;93.70
31975;DHT22;18500;43.618;1.474;2023-12-22T06:46:17;11.10;63.60
31975;DHT22;18500;43.618;1.474;2023-12-22T06:48:44;11.20;99.90
31975;DHT22;18500;43.618;1.474;2023-12-22T06:51:20;11.20;99.90
31975;DHT22;18500;43.618;1.474;2023-12-22T06:53:47;11.20;99.90
31975;DHT22;18500;43.618;1.474;2023-12-22T06:56:20;11.20;99.90
31975;DHT22;18500;43.618;1.474;2023-12-22T06:58:48;11.30;99.90
31975;DHT22;18500;43.618;1.474;2023-12-22T07:01:29;11.30;99.90
31975;DHT22;18500;43.618;1.474;2023-12-22T07:03:55;11.30;99.90
31975;DHT22;18500;43.618;1.474;2023-12-22T07:06:22;11.30;99.90
31975;DHT22;18500;43.618;1.474;2023-12-22T07:11:50;11.30;99.90
31975;DHT22;18500;43.618;1.474;2023-12-22T07:14:16;11.30;99.90
31975;DHT22;18500;43.618;1.474;2023-12-22T07:16:42;11.30;99.90
31975;DHT22;18500;43.618;1.474;2023-12-22T07:19:08;11.30;99.90
31975;DHT22;18500;43.618;1.474;2023-12-22T07:21:35;11.30;99.90
31975;DHT22;18500;43.618;1.474;2023-12-22T07:24:00;11.30;99.90
31975;DHT22;18500;43.618;1.474;2023-12-22T07:26:26;11.30;99.90
31975;DHT22;18500;43.618;1.474;2023-12-22T07:28:55;11.30;99.90
31975;DHT22;18500;43.618;1.474;2023-12-22T07:31:21;11.20;99.90
31975;DHT22;18500;43.618;1.474;2023-12-22T07:33:47;11.20;99.90
31975;DHT22;18500;43.618;1.474;2023-12-22T07:36:12;11.20;99.90
31975;DHT22;18500;43.618;1.474;2023-12-22T07:38:38;11.20;99.90
31975;DHT22;18500;43.618;1.474;2023-12-22T07:41:07;11.30;99.90
31975;DHT22;18500;43.618;1.474;2023-12-22T07:43:33;11.20;99.90
31975;DHT22;18500;43.618;1.474;2023-12-22T07:45:59;11.20;99.90
31975;DHT22;18500;43.618;1.474;2023-12-22T07:48:24;11.20;99.90
31975;DHT22;18500;43.618;1.474;2023-12-22T07:50:50;11.20;99.90
31975;DHT22;18500;43.618;1.474;2023-12-22T07:53:16;11.20;99.90
31975;DHT22;18500;43.618;1.474;2023-12-22T07:55:43;11.20;99.90
31975;DHT22;18500;43.618;1.474;2023-12-22T07:58:09;11.20;99.90
31975;DHT22;18500;43.618;1.474;2023-12-22T08:00:35;11.20;99.90
31975;DHT22;18500;43.618;1.474;2023-12-22T08:03:00;11.20;99.90
31975;DHT22;18500;43.618;1.474;2023-12-22T08:05:26;11.30;99.90
31975;DHT22;18500;43.618;1.474;2023-12-22T08:07:52;11.30;99.90
31975;DHT22;18500;43.618;1.474;2023-12-22T08:10:18;11.30;99.90
31975;DHT22;18500;43.618;1.474;2023-12-22T08:12:43;11.40;99.90
31975;DHT22;18500;43.618;1.474;2023-12-22T08:15:09;11.40;99.90
31975;DHT22;18500;43.618;1.474;2023-12-22T08:17:48;11.30;99.90
31975;DHT22;18500;43.618;1.474;2023-12-22T08:20:20;11.30;99.90
31975;DHT22;18500;43.618;1.474;2023-12-22T08:22:46;11.40;99.90
31975;DHT22;18500;43.618;1.474;2023-12-22T08:25:12;11.40;99.90
31975;DHT22;18500;43.618;1.474;2023-12-22T08:27:38;11.30;99.90
31975;DHT22;18500;43.618;1.474;2023-12-22T08:30:04;11.40;99.90
31975;DHT22;18500;43.618;1.474;2023-12-22T08:32:30;11.50;99.90
31975;DHT22;18500;43.618;1.474;2023-12-22T08:34:55;11.50;99.90
31975;DHT22;18500;43.618;1.474;2023-12-22T08:37:21;11.40;99.90
31975;DHT22;18500;43.618;1.474;2023-12-22T08:39:46;11.40;99.90
31975;DHT22;18500;43.618;1.474;2023-12-22T08:42:12;11.40;99.90
31975;DHT22;18500;43.618;1.474;2023-12-22T08:44:38;11.60;99.90
31975;DHT22;18500;43.618;1.474;2023-12-22T08:47:03;11.50;99.90
31975;DHT22;18500;43.618;1.474;2023-12-22T08:49:29;11.50;99.90
31975;DHT22;18500;43.618;1.474;2023-12-22T08:51:55;11.50;99.90
31975;DHT22;18500;43.618;1.474;2023-12-22T08:54:20;11.50;99.90
31975;DHT22;18500;43.618;1.474;2023-12-22T08:56:46;11.50;99.90
31975;DHT22;18500;43.618;1.474;2023-12-22T08:59:11;11.50;99.90
31975;DHT22;18500;43.618;1.474;2023-12-22T09:01:37;11.60;99.90
31975;DHT22;18500;43.618;1.474;2023-12-22T09:04:03;11.50;99.90
31975;DHT22;18500;43.618;1.474;2023-12-22T09:06:28;11.50;99.90
31975;DHT22;18500;43.618;1.474;2023-12-22T09:08:54;11.60;99.90
31975;DHT22;18500;43.618;1.474;2023-12-22T09:11:20;11.50;99.90
31975;DHT22;18500;43.618;1.474;2023-12-22T09:13:47;11.60;99.90
31975;DHT22;18500;43.618;1.474;2023-12-22T09:16:12;11.60;99.90
31975;DHT22;18500;43.618;1.474;2023-12-22T09:18:41;11.60;99.90
31975;DHT22;18500;43.618;1.474;2023-12-22T09:21:08;11.60;99.90
31975;DHT22;18500;43.618;1.474;2023-12-22T09:23:33;11.70;99.90
31975;DHT22;18500;43.618;1.474;2023-12-22T09:25:59;11.60;99.90
31975;DHT22;18500;43.618;1.474;2023-12-22T09:28:25;11.70;99.90
31975;DHT22;18500;43.618;1.474;2023-12-22T09:30:51;11.80;99.90
31975;DHT22;18500;43.618;1.474;2023-12-22T09:33:16;11.80;99.90
31975;DHT22;18500;43.618;1.474;2023-12-22T09:35:42;11.80;99.90
31975;DHT22;18500;43.618;1.474;2023-12-22T09:38:11;11.90;99.90
31975;DHT22;18500;43.618;1.474;2023-12-22T09:40:40;11.80;99.90
31975;DHT22;18500;43.618;1.474;2023-12-22T09:43:09;11.80;99.90
31975;DHT22;18500;43.618;1.474;2023-12-22T09:45:35;11.80;99.90
31975;DHT22;18500;43.618;1.474;2023-12-22T09:48:02;11.90;99.90
31975;DHT22;18500;43.618;1.474;2023-12-22T09:50:30;11.90;99.90
31975;DHT22;18500;43.618;1.474;2023-12-22T09:52:56;11.90;99.90
31975;DHT22;18500;43.618;1.474;2023-12-22T09:55:22;11.90;99.90
31975;DHT22;18500;43.618;1.474;2023-12-22T09:57:49;11.90;99.90
31975;DHT22;18500;43.618;1.474;2023-12-22T10:00:15;11.80;99.90
31975;DHT22;18500;43.618;1.474;2023-12-22T10:02:43;11.80;99.90
31975;DHT22;18500;43.618;1.474;2023-12-22T10:05:11;11.90;99.90
31975;DHT22;18500;43.618;1.474;2023-12-22T10:07:39;11.90;99.90
31975;DHT22;18500;43.618;1.474;2023-12-22T10:10:07;11.90;99.90
31975;DHT22;18500;43.618;1.474;2023-12-22T10:12:34;11.80;99.90
31975;DHT22;18500;43.618;1.474;2023-12-22T10:15:00;11.90;99.90
31975;DHT22;18500;43.618;1.474;2023-12-22T10:17:26;11.80;99.90
31975;DHT22;18500;43.618;1.474;2023-12-22T10:19:52;11.80;99.90
31975;DHT22;18500;43.618;1.474;2023-12-22T10:22:18;11.80;99.90
31975;DHT22;18500;43.618;1.474;2023-12-22T10:24:47;11.90;99.90
31975;DHT22;18500;43.618;1.474;2023-12-22T10:27:14;11.90;99.90
31975;DHT22;18500;43.618;1.474;2023-12-22T10:29:40;11.90;99.90
31975;DHT22;18500;43.618;1.474;2023-12-22T10:32:07;11.90;99.90
31975;DHT22;18500;43.618;1.474;2023-12-22T10:34:37;12.00;99.90
31975;DHT22;18500;43.618;1.474;2023-12-22T10:37:04;12.10;99.90
31975;DHT22;18500;43.618;1.474;2023-12-22T10:39:30;12.00;99.90
31975;DHT22;18500;43.618;1.474;2023-12-22T10:41:57;12.10;99.90
31975;DHT22;18500;43.618;1.474;2023-12-22T10:44:29;12.00;99.90
31975;DHT22;18500;43.618;1.474;2023-12-22T10:46:58;12.10;99.90
31975;DHT22;18500;43.618;1.474;2023-12-22T10:49:26;12.10;99.90
31975;DHT22;18500;43.618;1.474;2023-12-22T10:51:52;12.20;99.90
31975;DHT22;18500;43.618;1.474;2023-12-22T10:54:19;12.10;99.90
31975;DHT22;18500;43.618;1.474;2023-12-22T10:56:44;12.10;99.90
31975;DHT22;18500;43.618;1.474;2023-12-22T10:59:10;12.00;99.90
31975;DHT22;18500;43.618;1.474;2023-12-22T11:01:37;12.00;99.90
31975;DHT22;18500;43.618;1.474;2023-12-22T11:04:14;12.10;99.90
31975;DHT22;18500;43.618;1.474;2023-12-22T11:06:43;12.00;99.90
31975;DHT22;18500;43.618;1.474;2023-12-22T11:09:10;12.10;99.90
31975;DHT22;18500;43.618;1.474;2023-12-22T11:11:37;12.00;99.90
31975;DHT22;18500;43.618;1.474;2023-12-22T11:14:05;12.10;99.90
31975;DHT22;18500;43.618;1.474;2023-12-22T11:16:32;12.10;99.90
31975;DHT22;18500;43.618;1.474;2023-12-22T11:19:03;12.20;99.90
31975;DHT22;18500;43.618;1.474;2023-12-22T11:21:29;12.20;99.90
31975;DHT22;18500;43.618;1.474;2023-12-22T11:23:56;12.20;99.90
31975;DHT22;18500;43.618;1.474;2023-12-22T11:26:24;12.30;99.90
31975;DHT22;18500;43.618;1.474;2023-12-22T11:28:51;12.20;99.90
31975;DHT22;18500;43.618;1.474;2023-12-22T11:31:18;12.20;99.90
31975;DHT22;18500;43.618;1.474;2023-12-22T11:33:45;12.10;99.90
31975;DHT22;18500;43.618;1.474;2023-12-22T11:36:12;12.10;99.90
31975;DHT22;18500;43.618;1.474;2023-12-22T11:38:42;12.10;99.90
31975;DHT22;18500;43.618;1.474;2023-12-22T11:41:15;12.10;99.90
31975;DHT22;18500;43.618;1.474;2023-12-22T11:43:42;12.10;99.90
31975;DHT22;18500;43.618;1.474;2023-12-22T11:46:08;12.00;99.90
31975;DHT22;18500;43.618;1.474;2023-12-22T11:48:34;12.00;99.90
31975;DHT22;18500;43.618;1.474;2023-12-22T11:51:00;12.20;99.90
31975;DHT22;18500;43.618;1.474;2023-12-22T11:53:30;12.10;99.90
31975;DHT22;18500;43.618;1.474;2023-12-22T11:56:04;12.20;99.90
31975;DHT22;18500;43.618;1.474;2023-12-22T12:01:05;12.30;99.90
31975;DHT22;18500;43.618;1.474;2023-12-22T12:03:31;12.30;99.90
31975;DHT22;18500;43.618;1.474;2023-12-22T12:09:04;12.30;99.90
31975;DHT22;18500;43.618;1.474;2023-12-22T12:14:22;12.30;99.90
31975;DHT22;18500;43.618;1.474;2023-12-22T12:17:00;12.30;99.90
31975;DHT22;18500;43.618;1.474;2023-12-22T12:19:29;12.20;99.90
31975;DHT22;18500;43.618;1.474;2023-12-22T12:21:55;12.20;99.90
31975;DHT22;18500;43.618;1.474;2023-12-22T12:24:20;12.30;99.90
31975;DHT22;18500;43.618;1.474;2023-12-22T12:26:47;12.20;99.90
31975;DHT22;18500;43.618;1.474;2023-12-22T12:29:13;12.20;99.90
31975;DHT22;18500;43.618;1.474;2023-12-22T12:31:41;12.10;99.90
31975;DHT22;18500;43.618;1.474;2023-12-22T12:34:09;12.30;99.90
31975;DHT22;18500;43.618;1.474;2023-12-22T12:36:36;12.30;99.90
31975;DHT22;18500;43.618;1.474;2023-12-22T12:39:06;12.40;99.90
31975;DHT22;18500;43.618;1.474;2023-12-22T12:41:41;12.40;99.90
31975;DHT22;18500;43.618;1.474;2023-12-22T12:44:07;12.40;99.90
31975;DHT22;18500;43.618;1.474;2023-12-22T12:46:35;12.50;99.90
31975;DHT22;18500;43.618;1.474;2023-12-22T12:49:08;12.40;99.90
31975;DHT22;18500;43.618;1.474;2023-12-22T12:51:38;12.60;99.90
31975;DHT22;18500;43.618;1.474;2023-12-22T12:54:07;12.70;99.90
31975;DHT22;18500;43.618;1.474;2023-12-22T12:56:44;12.60;99.90
31975;DHT22;18500;43.618;1.474;2023-12-22T12:59:14;12.80;99.90
31975;DHT22;18500;43.618;1.474;2023-12-22T13:01:47;12.80;99.90
31975;DHT22;18500;43.618;1.474;2023-12-22T13:04:13;12.70;99.90
31975;DHT22;18500;43.618;1.474;2023-12-22T13:06:46;12.60;99.90
31975;DHT22;18500;43.618;1.474;2023-12-22T13:09:12;12.40;99.90
31975;DHT22;18500;43.618;1.474;2023-12-22T13:11:41;12.50;99.90
31975;DHT22;18500;43.618;1.474;2023-12-22T13:14:10;12.70;99.90
31975;DHT22;18500;43.618;1.474;2023-12-22T13:16:36;12.80;99.90
31975;DHT22;18500;43.618;1.474;2023-12-22T13:19:03;12.80;99.90
31975;DHT22;18500;43.618;1.474;2023-12-22T13:21:29;12.70;99.90
31975;DHT22;18500;43.618;1.474;2023-12-22T13:24:11;12.70;99.90
31975;DHT22;18500;43.618;1.474;2023-12-22T13:26:37;12.70;99.90
31975;DHT22;18500;43.618;1.474;2023-12-22T13:29:04;12.50;99.90
31975;DHT22;18500;43.618;1.474;2023-12-22T13:31:33;12.70;99.90
31975;DHT22;18500;43.618;1.474;2023-12-22T13:34:01;12.80;99.90
31975;DHT22;18500;43.618;1.474;2023-12-22T13:36:27;12.70;99.90
31975;DHT22;18500;43.618;1.474;2023-12-22T13:38:53;12.60;99.90
31975;DHT22;18500;43.618;1.474;2023-12-22T13:41:19;12.60;99.90
31975;DHT22;18500;43.618;1.474;2023-12-22T13:43:45;12.50;99.90
31975;DHT22;18500;43.618;1.474;2023-12-22T13:46:12;12.60;99.90
31975;DHT22;18500;43.618;1.474;2023-12-22T13:48:38;12.50;99.90
31975;DHT22;18500;43.618;1.474;2023-12-22T13:51:04;12.40;99.90
31975;DHT22;18500;43.618;1.474;2023-12-22T13:53:29;12.50;99.90
31975;DHT22;18500;43.618;1.474;2023-12-22T13:55:59;12.50;99.90
31975;DHT22;18500;43.618;1.474;2023-12-22T13:58:25;12.30;99.90
31975;DHT22;18500;43.618;1.474;2023-12-22T14:00:52;12.20;99.90
31975;DHT22;18500;43.618;1.474;2023-12-22T14:03:18;12.30;99.90
31975;DHT22;18500;43.618;1.474;2023-12-22T14:05:52;12.30;99.90
31975;DHT22;18500;43.618;1.474;2023-12-22T14:08:18;12.30;99.90
31975;DHT22;18500;43.618;1.474;2023-12-22T14:10:47;12.30;99.90
31975;DHT22;18500;43.618;1.474;2023-12-22T14:13:16;12.30;52.00
31975;DHT22;18500;43.618;1.474;2023-12-22T14:15:43;12.20;1.00
31975;DHT22;18500;43.618;1.474;2023-12-22T14:18:12;12.20;1.00
31975;DHT22;18500;43.618;1.474;2023-12-22T14:20:38;12.20;99.90
31975;DHT22;18500;43.618;1.474;2023-12-22T14:23:04;12.20;99.90
31975;DHT22;18500;43.618;1.474;2023-12-22T14:25:29;12.10;99.90
31975;DHT22;18500;43.618;1.474;2023-12-22T14:27:57;12.10;1.00
31975;DHT22;18500;43.618;1.474;2023-12-22T14:30:24;12.00;1.00
31975;DHT22;18500;43.618;1.474;2023-12-22T14:32:50;12.00;99.90
31975;DHT22;18500;43.618;1.474;2023-12-22T14:35:15;11.90;99.90
31975;DHT22;18500;43.618;1.474;2023-12-22T14:37:41;12.00;99.90
31975;DHT22;18500;43.618;1.474;2023-12-22T14:40:08;12.00;99.90
31975;DHT22;18500;43.618;1.474;2023-12-22T14:42:35;12.00;99.90
31975;DHT22;18500;43.618;1.474;2023-12-22T14:45:00;12.00;99.90
31975;DHT22;18500;43.618;1.474;2023-12-22T14:47:29;12.10;99.90
31975;DHT22;18500;43.618;1.474;2023-12-22T14:49:56;12.20;1.00
31975;DHT22;18500;43.618;1.474;2023-12-22T14:52:25;12.20;1.00
31975;DHT22;18500;43.618;1.474;2023-12-22T14:54:50;12.20;1.00
31975;DHT22;18500;43.618;1.474;2023-12-22T14:57:16;12.20;17.10
31975;DHT22;18500;43.618;1.474;2023-12-22T14:59:46;12.20;99.90
31975;DHT22;18500;43.618;1.474;2023-12-22T15:02:12;12.40;99.90
31975;DHT22;18500;43.618;1.474;2023-12-22T15:04:38;12.20;99.90
31975;DHT22;18500;43.618;1.474;2023-12-22T15:07:03;12.40;99.90
31975;DHT22;18500;43.618;1.474;2023-12-22T15:09:29;12.40;99.90
31975;DHT22;18500;43.618;1.474;2023-12-22T15:11:55;12.30;99.90
31975;DHT22;18500;43.618;1.474;2023-12-22T15:14:21;12.30;99.90
31975;DHT22;18500;43.618;1.474;2023-12-22T15:16:47;12.20;99.90
31975;DHT22;18500;43.618;1.474;2023-12-22T15:19:16;12.20;99.90
31975;DHT22;18500;43.618;1.474;2023-12-22T15:21:43;12.20;99.90
31975;DHT22;18500;43.618;1.474;2023-12-22T15:24:09;12.10;99.90
31975;DHT22;18500;43.618;1.474;2023-12-22T15:26:35;12.10;99.90
31975;DHT22;18500;43.618;1.474;2023-12-22T15:29:03;12.10;99.90
31975;DHT22;18500;43.618;1.474;2023-12-22T15:31:29;12.10;99.90
31975;DHT22;18500;43.618;1.474;2023-12-22T15:33:56;11.90;99.90
31975;DHT22;18500;43.618;1.474;2023-12-22T15:36:22;11.90;99.90
31975;DHT22;18500;43.618;1.474;2023-12-22T15:38:48;11.90;99.90
31975;DHT22;18500;43.618;1.474;2023-12-22T15:41:14;11.80;99.90